createdAt,value
2019-03-16T00:02:13.286Z,7.00
2019-03-16T00:04:36.343Z,7.00
2019-03-16T00:06:59.443Z,7.10
2019-03-16T00:09:22.515Z,7.00
2019-03-16T00:11:45.742Z,7.00
2019-03-16T00:14:10.522Z,7.00
2019-03-16T00:16:52.956Z,7.00
2019-03-16T00:19:16.086Z,7.00
2019-03-16T00:24:26.846Z,7.00
2019-03-16T00:26:49.877Z,7.00
2019-03-16T00:29:32.152Z,6.90
2019-03-16T00:32:14.427Z,7.00
2019-03-16T00:34:37.485Z,7.00
2019-03-16T00:39:42.786Z,6.50
2019-03-16T00:42:24.959Z,6.90
2019-03-16T00:44:38.761Z,7.10
2019-03-16T00:47:01.837Z,7.10
2019-03-16T00:49:24.959Z,7.00
2019-03-16T00:51:48.558Z,7.00
2019-03-16T00:56:41.055Z,7.00
2019-03-16T01:01:46.423Z,7.10
2019-03-16T01:04:09.464Z,7.10
2019-03-16T01:06:32.517Z,7.10
2019-03-16T01:08:55.595Z,7.00
2019-03-16T01:11:18.679Z,7.10
2019-03-16T01:13:41.757Z,7.10
2019-03-16T01:16:04.939Z,7.10
2019-03-16T01:20:57.159Z,7.00
2019-03-16T01:23:20.241Z,7.10
2019-03-16T01:26:02.490Z,7.10
2019-03-16T01:28:44.769Z,7.10
2019-03-16T01:31:26.978Z,7.10
2019-03-16T01:37:12.001Z,7.10
2019-03-16T01:39:54.193Z,7.10
2019-03-16T01:44:45.959Z,7.10
2019-03-16T01:47:01.563Z,7.10
2019-03-16T01:49:16.990Z,7.00
2019-03-16T01:51:30.665Z,7.00
2019-03-16T01:56:22.910Z,7.10
2019-03-16T01:58:45.951Z,7.10
2019-03-16T02:01:08.999Z,7.10
2019-03-16T02:12:03.111Z,7.40
2019-03-16T02:17:08.444Z,7.10
2019-03-16T02:19:31.495Z,7.20
2019-03-16T02:21:54.534Z,7.10
2019-03-16T02:24:17.749Z,7.10
2019-03-16T02:26:51.891Z,7.10
2019-03-16T02:29:05.812Z,7.20
2019-03-16T02:31:28.909Z,7.10
2019-03-16T02:36:35.788Z,7.10
2019-03-16T02:38:58.926Z,7.10
2019-03-16T02:41:22.093Z,7.10
2019-03-16T02:44:04.349Z,7.10
2019-03-16T02:46:27.424Z,7.00
2019-03-16T02:48:50.736Z,7.00
2019-03-16T02:51:14.223Z,7.00
2019-03-16T02:53:56.426Z,7.00
2019-03-16T02:56:19.588Z,7.00
2019-03-16T02:58:44.270Z,7.10
2019-03-16T03:01:07.376Z,7.00
2019-03-16T03:03:41.649Z,7.00
2019-03-16T03:05:55.340Z,7.00
2019-03-16T03:08:37.652Z,7.00
2019-03-16T03:11:02.323Z,7.00
2019-03-16T03:13:25.372Z,7.00
2019-03-16T03:15:48.515Z,7.00
2019-03-16T03:18:11.577Z,7.00
2019-03-16T03:20:36.354Z,7.00
2019-03-16T03:22:59.424Z,7.00
2019-03-16T03:25:22.472Z,7.00
2019-03-16T03:27:45.531Z,6.90
2019-03-16T03:30:08.696Z,7.00
2019-03-16T03:32:50.939Z,7.10
2019-03-16T03:35:33.129Z,7.10
2019-03-16T03:37:56.331Z,7.10
2019-03-16T03:40:38.552Z,7.00
2019-03-16T03:43:01.605Z,6.90
2019-03-16T03:45:43.799Z,6.80
2019-03-16T03:47:59.351Z,6.90
2019-03-16T03:50:14.647Z,6.90
2019-03-16T03:52:28.588Z,6.90
2019-03-16T03:54:51.739Z,7.00
2019-03-16T03:57:33.925Z,6.90
2019-03-16T04:02:26.276Z,6.90
2019-03-16T04:05:08.782Z,6.80
2019-03-16T04:07:50.955Z,6.60
2019-03-16T04:10:14.119Z,6.60
2019-03-16T04:12:37.261Z,6.60
2019-03-16T04:15:00.470Z,6.60
2019-03-16T04:17:25.218Z,6.60
2019-03-16T04:19:48.398Z,5.50
2019-03-16T04:24:44.976Z,6.60
2019-03-16T04:27:15.739Z,6.60
2019-03-16T04:29:30.338Z,6.60
2019-03-16T04:31:53.423Z,6.60
2019-03-16T04:34:28.417Z,6.70
2019-03-16T04:37:00.482Z,6.60
2019-03-16T04:39:23.559Z,6.60
2019-03-16T04:41:46.599Z,6.60
2019-03-16T04:44:09.641Z,6.60
2019-03-16T04:48:53.532Z,6.60
2019-03-16T04:51:07.576Z,6.60
2019-03-16T04:53:30.692Z,6.60
2019-03-16T04:55:53.751Z,6.60
2019-03-16T04:58:16.832Z,6.60
2019-03-16T05:00:39.872Z,6.70
2019-03-16T05:03:22.202Z,6.70
2019-03-16T05:05:45.263Z,6.70
2019-03-16T05:08:08.315Z,6.70
2019-03-16T05:13:00.096Z,6.60
2019-03-16T05:15:23.149Z,6.60
2019-03-16T05:18:05.339Z,6.60
2019-03-16T05:20:28.416Z,6.60
2019-03-16T05:25:19.746Z,6.60
2019-03-16T05:27:42.771Z,6.70
2019-03-16T05:32:54.757Z,6.70
2019-03-16T05:35:17.815Z,6.70
2019-03-16T05:37:40.915Z,6.70
2019-03-16T05:42:52.983Z,6.70
2019-03-16T05:45:16.038Z,6.60
2019-03-16T05:47:58.241Z,6.60
2019-03-16T05:50:13.618Z,6.60
2019-03-16T05:52:27.935Z,6.60
2019-03-16T05:54:50.991Z,6.60
2019-03-16T05:57:14.156Z,6.60
2019-03-16T05:59:37.231Z,6.60
2019-03-16T06:02:00.289Z,6.60
2019-03-16T06:04:23.355Z,6.60
2019-03-16T06:06:46.424Z,6.60
2019-03-16T06:09:28.780Z,6.60
2019-03-16T06:11:51.840Z,6.70
2019-03-16T06:14:14.903Z,6.70
2019-03-16T06:19:07.178Z,6.70
2019-03-16T06:21:30.282Z,6.70
2019-03-16T06:23:53.443Z,6.70
2019-03-16T06:26:16.487Z,6.50
2019-03-16T06:28:39.545Z,6.70
2019-03-16T06:31:02.620Z,6.70
2019-03-16T06:33:25.671Z,6.60
2019-03-16T06:38:36.887Z,6.70
2019-03-16T06:40:59.947Z,6.50
2019-03-16T06:43:22.967Z,6.50
2019-03-16T06:45:46.015Z,6.60
2019-03-16T06:48:09.092Z,6.60
2019-03-16T06:50:23.227Z,6.80
2019-03-16T06:52:46.284Z,6.70
2019-03-16T06:55:09.421Z,6.70
2019-03-16T06:57:32.467Z,6.80
2019-03-16T06:59:55.607Z,6.90
2019-03-16T07:02:18.697Z,6.90
2019-03-16T07:04:41.831Z,6.70
2019-03-16T07:07:05.528Z,7.20
2019-03-16T07:09:28.647Z,6.60
2019-03-16T07:11:51.684Z,6.70
2019-03-16T07:14:14.767Z,6.60
2019-03-16T07:16:37.814Z,6.60
2019-03-16T07:19:00.870Z,6.60
2019-03-16T07:21:43.206Z,6.70
2019-03-16T07:24:06.255Z,6.80
2019-03-16T07:26:29.310Z,6.70
2019-03-16T07:29:11.595Z,6.60
2019-03-16T07:31:36.355Z,6.70
2019-03-16T07:33:59.452Z,6.80
2019-03-16T07:38:51.472Z,6.70
2019-03-16T07:41:14.523Z,6.70
2019-03-16T07:43:37.571Z,6.80
2019-03-16T07:46:00.643Z,7.00
2019-03-16T07:48:23.712Z,7.00
2019-03-16T07:50:37.658Z,7.10
2019-03-16T07:53:00.710Z,7.00
2019-03-16T07:55:23.760Z,6.90
2019-03-16T07:57:46.831Z,7.10
2019-03-16T08:00:09.992Z,6.90
2019-03-16T08:02:33.053Z,7.00
2019-03-16T08:04:56.138Z,7.00
2019-03-16T08:07:19.165Z,7.10
2019-03-16T08:12:34.547Z,7.50
2019-03-16T08:14:57.608Z,7.40
2019-03-16T08:17:20.739Z,7.30
2019-03-16T08:19:43.814Z,7.40
2019-03-16T08:22:06.919Z,7.30
2019-03-16T08:24:49.189Z,7.50
2019-03-16T08:27:12.264Z,7.50
2019-03-16T08:29:35.353Z,7.30
2019-03-16T08:31:58.464Z,7.30
2019-03-16T08:34:21.610Z,7.60
2019-03-16T08:36:44.650Z,7.40
2019-03-16T08:39:07.978Z,7.50
2019-03-16T08:41:31.094Z,7.40
2019-03-16T08:44:13.551Z,7.60
2019-03-16T08:46:36.623Z,7.00
2019-03-16T08:48:59.675Z,7.50
2019-03-16T08:53:43.523Z,7.70
2019-03-16T08:55:59.005Z,7.50
2019-03-16T08:58:14.438Z,6.40
2019-03-16T09:00:28.184Z,7.60
2019-03-16T09:03:10.378Z,7.50
2019-03-16T09:05:52.578Z,7.40
2019-03-16T09:08:15.656Z,7.70
2019-03-16T09:10:38.711Z,7.60
2019-03-16T09:15:30.685Z,7.70
2019-03-16T09:20:36.088Z,7.60
2019-03-16T09:28:29.296Z,7.80
2019-03-16T09:33:21.791Z,7.70
2019-03-16T09:35:46.323Z,7.80
2019-03-16T09:40:38.459Z,7.30
2019-03-16T09:48:33.707Z,7.00
2019-03-16T09:51:15.945Z,6.90
2019-03-16T09:55:58.367Z,5.80
2019-03-16T09:58:30.722Z,5.40
2019-03-16T10:00:46.315Z,5.40
2019-03-16T10:03:09.353Z,5.20
2019-03-16T10:05:32.397Z,5.30
2019-03-16T10:07:55.457Z,5.40
2019-03-16T10:13:06.931Z,5.80
2019-03-16T10:15:49.199Z,5.90
2019-03-16T10:18:12.258Z,6.10
2019-03-16T10:20:35.490Z,6.40
2019-03-16T10:22:58.636Z,6.40
2019-03-16T10:25:21.683Z,6.70
2019-03-16T10:27:44.868Z,6.20
2019-03-16T10:30:27.373Z,6.90
2019-03-16T10:32:50.420Z,7.10
2019-03-16T10:35:13.535Z,7.10
2019-03-16T10:37:36.639Z,7.10
2019-03-16T10:42:49.084Z,7.00
2019-03-16T10:45:31.267Z,6.80
2019-03-16T10:47:54.331Z,6.30
2019-03-16T10:50:17.530Z,7.00
2019-03-16T10:52:59.741Z,7.00
2019-03-16T10:55:13.496Z,7.10
2019-03-16T10:57:36.621Z,7.20
2019-03-16T10:59:59.774Z,7.20
2019-03-16T11:02:22.888Z,7.30
2019-03-16T11:04:45.935Z,7.50
2019-03-16T11:12:07.601Z,7.80
2019-03-16T11:17:20.595Z,7.20
2019-03-16T11:19:43.849Z,7.20
2019-03-16T11:22:06.915Z,7.20
2019-03-16T11:24:29.957Z,7.10
2019-03-16T11:26:53.032Z,7.00
2019-03-16T11:29:16.190Z,6.70
2019-03-16T11:31:39.379Z,6.70
2019-03-16T11:34:02.485Z,6.80
2019-03-16T11:36:25.767Z,6.70
2019-03-16T11:39:08.118Z,6.50
2019-03-16T11:44:34.059Z,6.40
2019-03-16T11:46:57.252Z,6.40
2019-03-16T11:49:20.596Z,6.20
2019-03-16T11:51:43.769Z,6.00
2019-03-16T11:53:57.673Z,5.90
2019-03-16T11:56:20.842Z,6.20
2019-03-16T11:58:44.100Z,6.50
2019-03-16T12:01:26.317Z,6.60
2019-03-16T12:04:08.501Z,6.60
2019-03-16T12:06:31.568Z,6.40
2019-03-16T12:08:54.655Z,6.00
2019-03-16T12:11:17.910Z,5.20
2019-03-16T12:16:28.996Z,6.00
2019-03-16T12:19:12.827Z,6.00
2019-03-16T12:21:35.913Z,5.80
2019-03-16T12:23:58.988Z,5.60
2019-03-16T12:26:22.244Z,5.60
2019-03-16T12:28:45.283Z,5.50
2019-03-16T12:31:08.387Z,5.50
2019-03-16T12:33:31.691Z,5.50
2019-03-16T12:36:13.970Z,5.60
2019-03-16T12:38:37.090Z,5.60
2019-03-16T12:41:00.137Z,5.80
2019-03-16T12:43:23.330Z,5.70
2019-03-16T12:45:46.353Z,5.80
2019-03-16T12:48:09.393Z,5.90
2019-03-16T12:50:32.465Z,5.80
2019-03-16T12:52:55.527Z,6.00
2019-03-16T12:57:31.567Z,5.80
2019-03-16T12:59:47.448Z,5.90
2019-03-16T13:02:03.203Z,6.00
2019-03-16T13:04:17.295Z,5.90
2019-03-16T13:06:40.337Z,5.90
2019-03-16T13:11:33.527Z,6.00
2019-03-16T13:14:07.999Z,5.90
2019-03-16T13:16:40.588Z,6.20
2019-03-16T13:19:04.485Z,5.90
2019-03-16T13:21:27.662Z,5.80
2019-03-16T13:23:50.731Z,5.70
2019-03-16T13:29:03.863Z,5.70
2019-03-16T13:31:26.967Z,5.80
2019-03-16T13:37:02.872Z,6.10
2019-03-16T13:39:26.017Z,5.90
2019-03-16T13:41:49.224Z,6.00
2019-03-16T13:44:12.292Z,6.00
2019-03-16T13:46:35.389Z,5.90
2019-03-16T13:48:58.515Z,5.90
2019-03-16T13:53:50.095Z,6.00
2019-03-16T13:56:13.146Z,6.00
2019-03-16T14:01:06.643Z,6.20
2019-03-16T14:03:48.937Z,6.10
2019-03-16T14:06:02.756Z,6.40
2019-03-16T14:08:25.879Z,6.40
2019-03-16T14:10:48.943Z,6.40
2019-03-16T14:13:13.708Z,6.40
2019-03-16T14:18:24.924Z,6.10
2019-03-16T14:20:48.093Z,6.10
2019-03-16T14:23:11.250Z,6.00
2019-03-16T14:25:36.077Z,5.90
2019-03-16T14:30:48.250Z,6.10
2019-03-16T14:33:15.845Z,6.00
2019-03-16T14:35:38.915Z,6.00
2019-03-16T14:38:01.976Z,6.00
2019-03-16T14:40:25.141Z,5.90
2019-03-16T14:42:49.909Z,5.20
2019-03-16T14:47:52.456Z,5.30
2019-03-16T14:50:17.403Z,6.20
2019-03-16T14:52:40.504Z,6.20
2019-03-16T14:55:06.116Z,5.90
2019-03-16T14:57:20.880Z,6.20
2019-03-16T14:59:43.960Z,6.30
2019-03-16T15:02:07.032Z,6.30
2019-03-16T15:04:30.157Z,6.40
2019-03-16T15:09:22.219Z,6.40
2019-03-16T15:11:45.272Z,6.30
2019-03-16T15:14:27.559Z,6.50
2019-03-16T15:17:09.727Z,6.60
2019-03-16T15:19:32.853Z,6.60
2019-03-16T15:21:56.030Z,6.70
2019-03-16T15:27:15.543Z,6.80
2019-03-16T15:34:25.002Z,6.90
2019-03-16T15:36:48.127Z,6.90
2019-03-16T15:39:11.173Z,7.00
2019-03-16T15:41:34.291Z,7.10
2019-03-16T15:46:26.560Z,7.20
2019-03-16T15:48:49.637Z,7.30
2019-03-16T15:53:41.171Z,7.50
2019-03-16T15:56:04.304Z,7.50
2019-03-16T15:58:33.765Z,7.50
2019-03-16T16:00:37.758Z,7.60
2019-03-16T16:02:41.645Z,7.60
2019-03-16T16:04:45.652Z,7.70
2019-03-16T16:06:49.615Z,7.80
2019-03-16T16:08:53.731Z,7.90
2019-03-16T16:11:01.141Z,8.00
2019-03-16T16:13:03.254Z,8.10
2019-03-16T16:15:07.923Z,8.20
2019-03-16T16:17:11.778Z,8.30
2019-03-16T16:19:15.683Z,8.40
2019-03-16T16:21:19.563Z,8.50
2019-03-16T16:23:23.467Z,8.50
2019-03-16T16:25:27.348Z,8.60
2019-03-16T16:27:31.303Z,8.60
2019-03-16T16:29:35.198Z,8.70
2019-03-16T16:31:39.048Z,8.70
2019-03-16T16:33:43.071Z,8.80
2019-03-16T16:35:47.243Z,8.80
2019-03-16T16:37:51.135Z,8.90
2019-03-16T16:39:55.035Z,8.90
2019-03-16T16:41:58.923Z,8.90
2019-03-16T16:44:02.921Z,8.90
2019-03-16T16:46:06.928Z,8.90
2019-03-16T16:48:10.821Z,9.00
2019-03-16T16:50:14.916Z,9.00
2019-03-16T16:52:18.875Z,9.10
2019-03-16T16:54:22.707Z,9.00
2019-03-16T16:56:26.598Z,9.00
2019-03-16T16:58:30.425Z,9.00
2019-03-16T17:00:34.366Z,9.10
2019-03-16T17:02:38.728Z,9.00
2019-03-16T17:04:42.574Z,9.00
2019-03-16T17:06:46.433Z,9.00
2019-03-16T17:08:50.455Z,9.10
2019-03-16T17:10:54.392Z,9.10
2019-03-16T17:12:58.288Z,9.10
2019-03-16T17:15:02.614Z,9.10
2019-03-16T17:17:06.783Z,9.10
2019-03-16T17:19:12.035Z,9.10
2019-03-16T17:21:16.095Z,9.10
2019-03-16T17:23:21.688Z,9.20
2019-03-16T17:25:29.198Z,9.10
2019-03-16T17:27:33.061Z,9.10
2019-03-16T17:29:37.007Z,9.20
2019-03-16T17:31:42.381Z,9.10
2019-03-16T17:33:46.788Z,9.20
2019-03-16T17:35:50.795Z,9.20
2019-03-16T17:37:54.746Z,9.20
2019-03-16T17:39:58.739Z,9.10
2019-03-16T17:42:02.645Z,9.20
2019-03-16T17:44:06.536Z,9.20
2019-03-16T17:46:10.591Z,9.20
2019-03-16T17:48:14.482Z,9.30
2019-03-16T17:50:18.459Z,9.30
2019-03-16T17:52:22.423Z,9.30
2019-03-16T17:54:26.407Z,9.30
2019-03-16T17:56:30.303Z,9.40
2019-03-16T17:58:34.349Z,9.30
2019-03-16T18:00:38.534Z,9.40
2019-03-16T18:02:51.173Z,9.30
2019-03-16T18:04:48.426Z,9.40
2019-03-16T18:06:52.475Z,9.30
2019-03-16T18:08:56.388Z,9.30
2019-03-16T18:11:00.371Z,9.40
2019-03-16T18:13:04.351Z,9.40
2019-03-16T18:15:11.753Z,9.40
2019-03-16T18:17:15.100Z,9.40
2019-03-16T18:19:20.285Z,9.40
2019-03-16T18:21:24.203Z,9.40
2019-03-16T18:23:28.092Z,9.40
2019-03-16T18:25:32.050Z,9.40
2019-03-16T18:27:36.023Z,9.30
2019-03-16T18:29:39.927Z,9.30
2019-03-16T18:31:43.771Z,9.40
2019-03-16T18:33:47.615Z,9.40
2019-03-16T18:35:51.713Z,9.40
2019-03-16T18:37:57.306Z,9.40
2019-03-16T18:40:01.411Z,9.40
2019-03-16T18:42:05.910Z,9.40
2019-03-16T18:44:09.870Z,9.40
2019-03-16T18:46:13.716Z,9.40
2019-03-16T18:48:20.064Z,9.40
2019-03-16T18:50:23.999Z,9.50
2019-03-16T18:52:27.898Z,9.50
2019-03-16T18:54:31.790Z,9.40
2019-03-16T18:56:35.620Z,9.50
2019-03-16T18:58:39.555Z,9.50
2019-03-16T19:00:43.474Z,9.50
2019-03-16T19:02:47.467Z,9.50
2019-03-16T19:04:51.539Z,9.50
2019-03-16T19:06:55.537Z,9.50
2019-03-16T19:08:59.532Z,9.60
2019-03-16T19:11:03.660Z,9.50
2019-03-16T19:13:07.588Z,9.50
2019-03-16T19:15:12.954Z,9.60
2019-03-16T19:17:16.935Z,9.60
2019-03-16T19:19:20.885Z,9.60
2019-03-16T19:21:24.799Z,9.50
2019-03-16T19:23:28.755Z,9.60
2019-03-16T19:25:32.612Z,9.50
2019-03-16T19:27:36.506Z,9.60
2019-03-16T19:29:40.553Z,9.60
2019-03-16T19:31:44.590Z,9.70
2019-03-16T19:33:48.512Z,9.70
2019-03-16T19:35:52.491Z,9.70
2019-03-16T19:37:56.472Z,9.70
2019-03-16T19:40:00.349Z,9.70
2019-03-16T19:42:04.469Z,9.70
2019-03-16T19:44:08.384Z,9.80
2019-03-16T19:46:12.317Z,9.80
2019-03-16T19:48:16.295Z,9.80
2019-03-16T19:50:20.226Z,9.90
2019-03-16T19:52:24.063Z,9.90
2019-03-16T19:54:27.951Z,9.90
2019-03-16T19:56:31.804Z,9.90
2019-03-16T19:58:35.643Z,9.90
2019-03-16T20:00:39.774Z,9.90
2019-03-16T20:02:50.229Z,9.90
2019-03-16T20:04:49.366Z,9.90
2019-03-16T20:06:53.221Z,9.90
2019-03-16T20:08:57.119Z,9.90
2019-03-16T20:11:06.432Z,10.00
2019-03-16T20:13:06.644Z,9.90
2019-03-16T20:15:11.009Z,10.00
2019-03-16T20:17:14.845Z,9.90
2019-03-16T20:19:18.699Z,10.00
2019-03-16T20:21:22.535Z,10.10
2019-03-16T20:23:26.378Z,10.00
2019-03-16T20:25:30.310Z,10.00
2019-03-16T20:27:34.272Z,10.10
2019-03-16T20:29:38.350Z,10.10
2019-03-16T20:31:47.270Z,10.10
2019-03-16T20:33:48.056Z,10.10
2019-03-16T20:35:52.148Z,10.20
2019-03-16T20:37:55.973Z,10.20
2019-03-16T20:39:59.824Z,10.20
2019-03-16T20:42:03.858Z,10.20
2019-03-16T20:44:08.098Z,10.30
2019-03-16T20:46:12.211Z,10.30
2019-03-16T20:48:16.211Z,10.30
2019-03-16T20:50:20.494Z,10.30
2019-03-16T20:52:24.420Z,10.30
2019-03-16T20:54:28.352Z,10.30
2019-03-16T20:56:32.425Z,10.40
2019-03-16T20:58:36.410Z,10.30
2019-03-16T21:00:40.275Z,10.30
2019-03-16T21:02:44.449Z,10.30
2019-03-16T21:04:48.332Z,10.40
2019-03-16T21:06:52.258Z,10.40
2019-03-16T21:09:03.140Z,10.40
2019-03-16T21:11:01.808Z,10.40
2019-03-16T21:13:05.839Z,10.40
2019-03-16T21:15:10.522Z,10.30
2019-03-16T21:17:14.375Z,10.30
2019-03-16T21:19:18.250Z,10.30
2019-03-16T21:21:22.359Z,10.40
2019-03-16T21:23:26.226Z,10.40
2019-03-16T21:25:30.170Z,10.40
2019-03-16T21:27:34.192Z,10.40
2019-03-16T21:29:38.037Z,10.40
2019-03-16T21:31:42.070Z,10.40
2019-03-16T21:33:46.008Z,10.40
2019-03-16T21:35:50.015Z,10.40
2019-03-16T21:37:54.083Z,10.40
2019-03-16T21:39:58.076Z,10.40
2019-03-16T21:42:01.947Z,10.40
2019-03-16T21:44:06.052Z,10.40
2019-03-16T21:46:10.075Z,10.40
2019-03-16T21:48:14.082Z,10.40
2019-03-16T21:50:23.144Z,10.50
2019-03-16T21:52:27.104Z,10.40
2019-03-16T21:54:30.991Z,10.50
2019-03-16T21:56:34.864Z,10.50
2019-03-16T21:58:38.931Z,10.50
2019-03-16T22:01:02.029Z,10.50
2019-03-16T22:06:01.265Z,10.50
2019-03-16T22:08:43.463Z,10.40
2019-03-16T22:11:25.872Z,10.50
2019-03-16T22:13:48.950Z,10.50
2019-03-16T22:16:12.158Z,10.50
2019-03-16T22:18:35.436Z,10.40
2019-03-16T22:20:58.487Z,10.30
2019-03-16T22:23:21.539Z,10.30
2019-03-16T22:28:32.899Z,10.40
2019-03-16T22:30:55.971Z,10.30
2019-03-16T22:33:19.135Z,10.30
2019-03-16T22:35:42.993Z,10.20
2019-03-16T22:38:06.279Z,10.30
2019-03-16T22:40:30.298Z,10.30
2019-03-16T22:47:56.320Z,10.20
2019-03-16T22:50:19.997Z,10.30
2019-03-16T22:55:33.460Z,10.30
2019-03-16T22:57:57.119Z,10.30
2019-03-16T23:05:37.582Z,10.10
2019-03-16T23:07:53.395Z,10.30
2019-03-16T23:10:08.232Z,10.30
2019-03-16T23:12:31.752Z,10.30
2019-03-16T23:14:55.537Z,10.20
2019-03-16T23:35:45.307Z,10.30
2019-03-16T23:38:08.344Z,10.40
2019-03-16T23:40:50.551Z,10.30
2019-03-16T23:43:13.607Z,10.40
2019-03-16T23:45:55.995Z,10.30
2019-03-16T23:47:59.867Z,10.50
2019-03-16T23:50:04.152Z,10.50
2019-03-16T23:52:08.156Z,10.40
2019-03-16T23:54:12.127Z,10.40
2019-03-16T23:56:15.993Z,10.50
2019-03-16T23:58:20.088Z,10.50
